createdAt,value
2018-12-18T00:00:47.927Z,40.37
2018-12-18T00:03:15.446Z,46.40
2018-12-18T00:05:42.943Z,41.40
2018-12-18T00:08:10.473Z,39.70
2018-12-18T00:10:43.515Z,42.43
2018-12-18T00:13:11.048Z,40.90
2018-12-18T00:15:38.544Z,36.67
2018-12-18T00:18:06.071Z,42.10
2018-12-18T00:20:33.564Z,36.10
2018-12-18T00:23:01.091Z,36.97
2018-12-18T00:25:28.620Z,31.63
2018-12-18T00:27:56.115Z,33.40
2018-12-18T00:30:23.640Z,41.53
2018-12-18T00:32:51.130Z,38.20
2018-12-18T00:35:18.651Z,36.97
2018-12-18T00:37:46.143Z,37.53
2018-12-18T00:40:13.666Z,39.50
2018-12-18T00:42:41.155Z,37.73
2018-12-18T00:45:08.684Z,31.90
2018-12-18T00:47:36.183Z,31.60
2018-12-18T00:50:04.071Z,35.77
2018-12-18T00:52:31.573Z,34.50
2018-12-18T00:54:59.071Z,30.00
2018-12-18T00:57:26.600Z,36.37
2018-12-18T00:59:54.098Z,33.70
2018-12-18T01:02:21.699Z,33.90
2018-12-18T01:04:49.194Z,37.70
2018-12-18T01:07:16.719Z,35.13
2018-12-18T01:09:44.218Z,33.30
2018-12-18T01:12:11.747Z,33.90
2018-12-18T01:14:39.395Z,33.47
2018-12-18T01:17:06.930Z,35.73
2018-12-18T01:19:34.427Z,35.07
2018-12-18T01:22:01.939Z,32.57
2018-12-18T01:24:29.471Z,36.70
2018-12-18T01:26:56.970Z,38.63
2018-12-18T01:29:24.499Z,44.00
2018-12-18T01:31:51.995Z,34.97
2018-12-18T01:34:19.525Z,33.10
2018-12-18T01:36:47.031Z,33.93
2018-12-18T01:39:14.559Z,32.87
2018-12-18T01:41:42.051Z,27.90
2018-12-18T01:44:09.583Z,29.27
2018-12-18T01:46:37.083Z,33.23
2018-12-18T01:49:04.604Z,31.00
2018-12-18T01:51:32.111Z,30.40
2018-12-18T01:53:59.639Z,35.60
2018-12-18T01:56:27.143Z,34.70
2018-12-18T01:58:54.667Z,36.53
2018-12-18T02:01:22.163Z,36.07
2018-12-18T02:03:49.682Z,36.20
2018-12-18T02:06:17.184Z,39.00
2018-12-18T02:08:44.716Z,37.07
2018-12-18T02:11:12.218Z,36.23
2018-12-18T02:13:39.738Z,32.17
2018-12-18T02:16:09.214Z,39.03
2018-12-18T02:18:37.300Z,38.30
2018-12-18T02:21:04.806Z,33.63
2018-12-18T02:23:32.330Z,32.80
2018-12-18T02:25:59.822Z,36.40
2018-12-18T02:28:27.350Z,38.40
2018-12-18T02:30:54.843Z,35.17
2018-12-18T02:33:22.367Z,36.63
2018-12-18T02:35:49.865Z,36.40
2018-12-18T02:38:17.395Z,37.23
2018-12-18T02:40:44.890Z,34.07
2018-12-18T02:43:12.418Z,35.93
2018-12-18T02:45:39.926Z,31.33
2018-12-18T02:48:07.447Z,34.00
2018-12-18T02:50:34.944Z,37.97
2018-12-18T02:53:02.475Z,40.70
2018-12-18T02:55:29.970Z,36.10
2018-12-18T02:57:57.505Z,34.87
2018-12-18T03:00:25.003Z,35.30
2018-12-18T03:02:52.538Z,36.20
2018-12-18T03:05:20.040Z,36.63
2018-12-18T03:07:47.567Z,37.73
2018-12-18T03:10:15.063Z,37.50
2018-12-18T03:12:42.595Z,34.10
2018-12-18T03:15:10.090Z,41.17
2018-12-18T03:17:37.625Z,35.63
2018-12-18T03:20:06.981Z,37.37
2018-12-18T03:22:34.518Z,37.37
2018-12-18T03:25:02.315Z,38.73
2018-12-18T03:27:29.843Z,36.53
2018-12-18T03:29:57.351Z,34.97
2018-12-18T03:32:26.560Z,35.07
2018-12-18T03:34:54.064Z,39.23
2018-12-18T03:37:21.587Z,35.63
2018-12-18T03:39:49.092Z,40.67
2018-12-18T03:42:16.640Z,37.17
2018-12-18T03:44:44.145Z,40.83
2018-12-18T03:47:11.684Z,37.97
2018-12-18T03:49:39.183Z,36.80
2018-12-18T03:52:06.717Z,34.67
2018-12-18T03:54:34.215Z,37.60
2018-12-18T03:57:01.747Z,32.67
2018-12-18T03:59:29.248Z,38.10
2018-12-18T04:01:56.752Z,39.83
2018-12-18T04:04:24.284Z,38.77
2018-12-18T04:06:51.783Z,40.97
2018-12-18T04:09:19.315Z,42.07
2018-12-18T04:11:52.532Z,49.87
2018-12-18T04:14:20.064Z,47.77
2018-12-18T04:16:47.559Z,48.67
2018-12-18T04:19:15.096Z,46.03
2018-12-18T04:21:42.675Z,45.97
2018-12-18T04:24:10.206Z,52.53
2018-12-18T04:26:37.711Z,50.77
2018-12-18T04:31:44.323Z,52.50
2018-12-18T04:34:11.847Z,56.27
2018-12-18T04:36:39.351Z,50.27
2018-12-18T04:39:06.879Z,52.13
2018-12-18T04:41:34.375Z,50.53
2018-12-18T04:44:01.899Z,48.23
2018-12-18T04:46:29.400Z,51.00
2018-12-18T04:48:56.945Z,41.33
2018-12-18T04:51:24.447Z,46.70
2018-12-18T04:53:51.976Z,79.47
2018-12-18T04:56:19.483Z,46.57
2018-12-18T04:58:47.012Z,52.33
2018-12-18T05:01:14.515Z,46.70
2018-12-18T05:03:42.044Z,46.20
2018-12-18T05:06:09.663Z,43.53
2018-12-18T05:08:37.200Z,46.43
2018-12-18T05:11:04.703Z,51.17
2018-12-18T05:13:32.231Z,48.40
2018-12-18T05:15:59.735Z,47.03
2018-12-18T05:18:27.271Z,47.07
2018-12-18T05:20:54.775Z,48.80
2018-12-18T05:23:22.303Z,45.83
2018-12-18T05:25:49.800Z,47.70
2018-12-18T05:28:17.339Z,48.43
2018-12-18T05:30:44.851Z,57.73
2018-12-18T05:33:12.360Z,53.73
2018-12-18T05:35:39.892Z,46.17
2018-12-18T05:38:07.395Z,57.23
2018-12-18T05:40:34.928Z,55.37
2018-12-18T05:43:02.431Z,47.63
2018-12-18T05:45:29.963Z,48.60
2018-12-18T05:47:57.464Z,62.70
2018-12-18T05:50:24.995Z,59.60
2018-12-18T05:52:52.501Z,53.73
2018-12-18T05:55:20.040Z,55.43
2018-12-18T05:57:47.535Z,45.47
2018-12-18T06:00:15.072Z,45.00
2018-12-18T06:02:42.569Z,42.70
2018-12-18T06:05:10.106Z,38.33
2018-12-18T06:07:37.617Z,37.13
2018-12-18T06:10:05.232Z,37.33
2018-12-18T06:12:32.730Z,37.30
2018-12-18T06:15:00.255Z,38.00
2018-12-18T06:17:27.756Z,31.43
2018-12-18T06:19:55.301Z,29.60
2018-12-18T06:22:22.795Z,33.77
2018-12-18T06:24:50.329Z,32.10
2018-12-18T06:27:17.832Z,32.10
2018-12-18T06:29:45.327Z,24.93
2018-12-18T06:32:12.855Z,33.03
2018-12-18T06:34:40.355Z,27.83
2018-12-18T06:37:07.883Z,25.97
2018-12-18T06:39:35.380Z,28.07
2018-12-18T06:42:02.903Z,27.50
2018-12-18T06:44:30.403Z,31.43
2018-12-18T06:46:57.927Z,24.20
2018-12-18T06:49:25.454Z,27.40
2018-12-18T06:51:53.076Z,28.33
2018-12-18T06:54:20.581Z,26.90
2018-12-18T06:56:48.112Z,23.87
2018-12-18T06:59:15.612Z,29.73
2018-12-18T07:01:43.135Z,26.90
2018-12-18T07:04:10.635Z,30.07
2018-12-18T07:06:38.159Z,25.70
2018-12-18T07:09:07.827Z,28.40
2018-12-18T07:11:35.440Z,27.60
2018-12-18T07:14:02.935Z,31.23
2018-12-18T07:16:30.463Z,32.10
2018-12-18T07:18:57.963Z,29.23
2018-12-18T07:21:25.499Z,26.67
2018-12-18T07:23:53.078Z,30.93
2018-12-18T07:26:20.579Z,24.33
2018-12-18T07:28:48.115Z,25.17
2018-12-18T07:31:15.620Z,29.37
2018-12-18T07:33:43.148Z,19.70
2018-12-18T07:36:10.647Z,22.07
2018-12-18T07:38:38.176Z,23.87
2018-12-18T07:41:05.675Z,28.70
2018-12-18T07:43:33.207Z,26.03
2018-12-18T07:46:00.703Z,30.73
2018-12-18T07:48:28.237Z,23.60
2018-12-18T07:50:55.737Z,21.90
2018-12-18T07:53:23.267Z,25.20
2018-12-18T07:55:50.772Z,33.83
2018-12-18T07:58:18.302Z,20.10
2018-12-18T08:00:45.883Z,21.83
2018-12-18T08:03:13.420Z,20.97
2018-12-18T08:05:40.919Z,22.23
2018-12-18T08:08:08.532Z,23.53
2018-12-18T08:10:36.027Z,24.53
2018-12-18T08:13:03.559Z,27.40
2018-12-18T08:15:31.060Z,24.70
2018-12-18T08:17:58.588Z,26.13
2018-12-18T08:20:26.087Z,23.73
2018-12-18T08:22:53.612Z,23.00
2018-12-18T08:25:21.111Z,29.70
2018-12-18T08:27:48.639Z,25.40
2018-12-18T08:30:16.138Z,20.47
2018-12-18T08:32:43.662Z,17.33
2018-12-18T08:35:11.155Z,17.77
2018-12-18T08:37:39.318Z,20.30
2018-12-18T08:40:07.602Z,23.30
2018-12-18T08:42:35.132Z,24.23
2018-12-18T08:45:02.712Z,28.93
2018-12-18T08:47:30.235Z,26.10
2018-12-18T08:49:57.731Z,18.87
2018-12-18T08:52:25.255Z,16.73
2018-12-18T08:54:52.759Z,20.50
2018-12-18T08:57:20.260Z,17.07
2018-12-18T08:59:47.788Z,24.33
2018-12-18T09:02:15.292Z,21.83
2018-12-18T09:04:42.815Z,32.20
2018-12-18T09:07:10.315Z,27.93
2018-12-18T09:09:37.848Z,31.40
2018-12-18T09:12:05.343Z,22.60
2018-12-18T09:14:32.872Z,19.23
2018-12-18T09:17:02.568Z,23.70
2018-12-18T09:19:30.091Z,20.13
2018-12-18T09:21:57.592Z,15.00
2018-12-18T09:24:25.098Z,16.47
2018-12-18T09:26:52.627Z,17.93
2018-12-18T09:29:20.128Z,15.97
2018-12-18T09:31:47.655Z,13.47
2018-12-18T09:34:15.157Z,20.23
2018-12-18T09:36:42.688Z,19.33
2018-12-18T09:39:15.975Z,15.73
2018-12-18T09:41:45.487Z,17.90
2018-12-18T09:44:16.293Z,17.40
2018-12-18T09:46:43.899Z,17.83
2018-12-18T09:49:11.395Z,11.03
2018-12-18T09:51:38.921Z,9.10
2018-12-18T09:54:06.419Z,9.90
2018-12-18T09:56:35.939Z,11.67
2018-12-18T09:59:03.599Z,12.13
2018-12-18T10:01:31.132Z,10.67
2018-12-18T10:03:58.637Z,12.20
2018-12-18T10:06:26.177Z,10.10
2018-12-18T10:08:53.680Z,10.87
2018-12-18T10:11:21.219Z,10.93
2018-12-18T10:13:48.719Z,14.03
2018-12-18T10:16:16.248Z,7.50
2018-12-18T10:18:43.747Z,11.50
2018-12-18T10:21:11.275Z,7.40
2018-12-18T10:23:38.776Z,8.73
2018-12-18T10:26:06.304Z,9.60
2018-12-18T10:28:33.799Z,10.53
2018-12-18T10:31:01.331Z,12.53
2018-12-18T10:33:28.839Z,11.03
2018-12-18T10:36:02.781Z,9.60
2018-12-18T10:38:25.978Z,9.80
2018-12-18T10:40:53.854Z,11.13
2018-12-18T10:43:21.438Z,9.33
2018-12-18T10:45:48.968Z,13.93
2018-12-18T10:48:16.467Z,9.40
2018-12-18T10:50:43.995Z,20.17
2018-12-18T10:53:11.496Z,10.97
2018-12-18T10:55:39.024Z,8.07
2018-12-18T10:58:06.516Z,6.90
2018-12-18T11:03:39.739Z,9.97
2018-12-18T11:06:10.024Z,7.20
2018-12-18T11:08:36.799Z,11.63
2018-12-18T11:11:04.700Z,16.30
2018-12-18T11:13:32.205Z,8.23
2018-12-18T11:15:59.741Z,8.53
2018-12-18T11:18:27.236Z,9.90
2018-12-18T11:20:54.740Z,10.10
2018-12-18T11:23:22.276Z,13.27
2018-12-18T11:25:49.779Z,8.07
2018-12-18T11:28:17.305Z,7.03
2018-12-18T11:30:44.799Z,8.43
2018-12-18T11:33:12.323Z,6.50
2018-12-18T11:35:39.824Z,5.57
2018-12-18T11:38:07.351Z,7.37
2018-12-18T11:40:34.933Z,3.53
2018-12-18T11:43:02.463Z,5.40
2018-12-18T11:45:29.964Z,7.53
2018-12-18T11:47:57.489Z,8.70
2018-12-18T11:50:25.000Z,14.13
2018-12-18T11:52:52.536Z,15.37
2018-12-18T11:55:20.035Z,9.97
2018-12-18T11:57:47.559Z,3.80
2018-12-18T12:00:16.423Z,4.77
2018-12-18T12:02:43.956Z,4.77
2018-12-18T12:05:11.457Z,9.57
2018-12-18T12:07:38.992Z,5.20
2018-12-18T12:10:06.660Z,8.73
2018-12-18T12:12:34.187Z,5.27
2018-12-18T12:15:02.163Z,4.03
2018-12-18T12:17:29.972Z,3.97
2018-12-18T12:19:57.471Z,4.97
2018-12-18T12:22:25.004Z,5.30
2018-12-18T12:24:52.499Z,5.00
2018-12-18T12:27:25.683Z,5.00
2018-12-18T12:29:53.183Z,4.50
2018-12-18T12:32:20.720Z,8.00
2018-12-18T12:34:48.219Z,5.53
2018-12-18T12:37:15.757Z,4.80
2018-12-18T12:39:43.276Z,5.20
2018-12-18T12:42:10.803Z,6.93
2018-12-18T12:44:38.308Z,8.43
2018-12-18T12:47:05.839Z,6.63
2018-12-18T12:49:38.947Z,3.20
2018-12-18T12:52:06.471Z,3.73
2018-12-18T12:54:33.967Z,3.40
2018-12-18T12:57:01.664Z,3.50
2018-12-18T12:59:29.198Z,2.80
2018-12-18T13:01:56.696Z,2.63
2018-12-18T13:04:24.229Z,3.67
2018-12-18T13:06:51.732Z,2.53
2018-12-18T13:09:19.349Z,4.73
2018-12-18T13:11:46.843Z,2.97
2018-12-18T13:14:14.381Z,4.17
2018-12-18T13:16:41.883Z,5.60
2018-12-18T13:19:09.407Z,3.27
2018-12-18T13:21:36.900Z,2.30
2018-12-18T13:24:04.429Z,4.97
2018-12-18T13:26:31.935Z,2.57
2018-12-18T13:29:00.043Z,2.77
2018-12-18T13:31:27.548Z,5.33
2018-12-18T13:33:55.083Z,7.77
2018-12-18T13:36:22.583Z,3.37
2018-12-18T13:38:50.116Z,5.37
2018-12-18T13:41:17.618Z,10.73
2018-12-18T13:43:45.147Z,3.13
2018-12-18T13:46:15.122Z,5.17
2018-12-18T13:48:42.196Z,4.87
2018-12-18T13:51:09.692Z,3.80
2018-12-18T13:53:37.220Z,3.87
2018-12-18T13:56:04.715Z,4.13
2018-12-18T13:58:32.248Z,4.50
2018-12-18T14:00:59.744Z,3.90
2018-12-18T14:03:27.276Z,4.30
2018-12-18T14:05:54.767Z,3.80
2018-12-18T14:08:22.294Z,6.30
2018-12-18T14:10:49.792Z,7.73
2018-12-18T14:13:17.296Z,7.37
2018-12-18T14:15:44.820Z,9.10
2018-12-18T14:18:12.311Z,4.23
2018-12-18T14:20:39.838Z,5.30
2018-12-18T14:23:07.337Z,4.70
2018-12-18T14:25:34.859Z,7.20
2018-12-18T14:28:02.351Z,5.10
2018-12-18T14:30:29.879Z,4.30
2018-12-18T14:32:57.375Z,5.00
2018-12-18T14:35:24.895Z,3.80
2018-12-18T14:37:52.387Z,12.53
2018-12-18T14:40:19.920Z,17.80
2018-12-18T14:42:47.419Z,16.20
2018-12-18T14:45:14.944Z,5.20
2018-12-18T14:47:42.443Z,4.70
2018-12-18T14:50:10.159Z,5.67
2018-12-18T14:52:37.651Z,4.80
2018-12-18T14:55:05.256Z,4.30
2018-12-18T14:57:32.754Z,4.47
2018-12-18T15:00:00.283Z,10.43
2018-12-18T15:02:27.780Z,5.77
2018-12-18T15:04:55.307Z,5.87
2018-12-18T15:07:22.808Z,4.90
2018-12-18T15:09:50.340Z,5.00
2018-12-18T15:12:17.832Z,4.40
2018-12-18T15:14:45.364Z,5.10
2018-12-18T15:17:12.860Z,5.50
2018-12-18T15:19:40.391Z,6.80
2018-12-18T15:22:07.884Z,7.90
2018-12-18T15:24:35.410Z,7.20
2018-12-18T15:27:02.907Z,8.57
2018-12-18T15:29:30.431Z,5.57
2018-12-18T15:31:57.925Z,6.93
2018-12-18T15:34:25.452Z,7.17
2018-12-18T15:36:52.946Z,9.87
2018-12-18T15:39:20.472Z,5.57
2018-12-18T15:41:47.975Z,10.03
2018-12-18T15:44:15.503Z,9.60
2018-12-18T15:46:43.119Z,8.10
2018-12-18T15:49:10.609Z,6.83
2018-12-18T15:51:38.230Z,6.80
2018-12-18T15:54:05.723Z,8.97
2018-12-18T15:56:33.251Z,8.33
2018-12-18T15:59:00.744Z,7.83
2018-12-18T16:01:28.302Z,7.50
2018-12-18T16:03:55.796Z,9.50
2018-12-18T16:06:23.319Z,7.63
2018-12-18T16:08:50.816Z,7.20
2018-12-18T16:11:18.340Z,9.53
2018-12-18T16:13:45.840Z,7.97
2018-12-18T16:16:13.443Z,8.17
2018-12-18T16:18:40.941Z,9.13
2018-12-18T16:21:08.463Z,9.87
2018-12-18T16:23:35.961Z,7.87
2018-12-18T16:26:03.493Z,12.13
2018-12-18T16:28:30.987Z,8.80
2018-12-18T16:30:58.515Z,12.07
2018-12-18T16:33:26.019Z,8.87
2018-12-18T16:35:53.600Z,9.50
2018-12-18T16:38:21.124Z,11.10
2018-12-18T16:40:48.619Z,12.60
2018-12-18T16:43:16.139Z,9.17
2018-12-18T16:45:43.640Z,13.03
2018-12-18T16:48:11.163Z,13.20
2018-12-18T16:50:38.668Z,13.50
2018-12-18T16:53:06.192Z,11.53
2018-12-18T16:55:33.691Z,10.50
2018-12-18T16:58:01.216Z,8.80
2018-12-18T17:00:28.711Z,8.30
2018-12-18T17:02:56.248Z,13.67
2018-12-18T17:05:23.754Z,9.40
2018-12-18T17:07:51.283Z,10.77
2018-12-18T17:10:18.780Z,9.10
2018-12-18T17:12:51.887Z,12.27
2018-12-18T17:15:19.391Z,11.10
2018-12-18T17:17:46.927Z,11.93
2018-12-18T17:20:14.428Z,13.37
2018-12-18T17:22:41.968Z,19.10
2018-12-18T17:25:09.463Z,16.27
2018-12-18T17:27:36.968Z,13.57
2018-12-18T17:30:06.266Z,12.97
2018-12-18T17:32:33.846Z,20.63
2018-12-18T17:35:01.427Z,16.37
2018-12-18T17:37:28.933Z,17.33
2018-12-18T17:39:56.468Z,15.10
2018-12-18T17:42:23.976Z,19.77
2018-12-18T17:44:51.512Z,19.50
2018-12-18T17:47:19.016Z,22.77
2018-12-18T17:49:46.548Z,18.60
2018-12-18T17:52:14.049Z,19.73
2018-12-18T17:54:41.579Z,19.40
2018-12-18T17:57:09.087Z,18.13
2018-12-18T17:59:36.615Z,19.73
2018-12-18T18:02:04.116Z,19.80
2018-12-18T18:04:31.658Z,20.33
2018-12-18T18:06:59.155Z,22.33
2018-12-18T18:09:26.687Z,19.97
2018-12-18T18:11:54.200Z,21.00
2018-12-18T18:14:21.733Z,25.47
2018-12-18T18:16:49.236Z,79.97
2018-12-18T18:19:16.784Z,26.87
2018-12-18T18:21:44.321Z,25.90
2018-12-18T18:24:11.863Z,20.60
2018-12-18T18:26:39.364Z,23.67
2018-12-18T18:29:06.859Z,22.40
2018-12-18T18:31:34.387Z,21.70
2018-12-18T18:34:01.889Z,22.73
2018-12-18T18:36:29.419Z,22.83
2018-12-18T18:38:56.919Z,21.67
2018-12-18T18:41:24.459Z,24.87
2018-12-18T18:43:51.964Z,24.93
2018-12-18T18:46:19.491Z,22.83
2018-12-18T18:48:46.987Z,24.17
2018-12-18T18:51:14.511Z,25.87
2018-12-18T18:53:42.012Z,24.83
2018-12-18T18:56:09.544Z,30.87
2018-12-18T18:58:37.043Z,26.53
2018-12-18T19:01:04.576Z,26.40
2018-12-18T19:03:32.083Z,24.50
2018-12-18T19:05:59.624Z,30.83
2018-12-18T19:08:27.123Z,26.43
2018-12-18T19:10:54.648Z,28.63
2018-12-18T19:13:22.147Z,23.37
2018-12-18T19:15:49.700Z,23.87
2018-12-18T19:18:17.200Z,22.10
2018-12-18T19:20:44.701Z,25.90
2018-12-18T19:23:12.231Z,24.20
2018-12-18T19:25:39.732Z,25.23
2018-12-18T19:28:07.269Z,27.93
2018-12-18T19:30:34.768Z,25.60
2018-12-18T19:33:02.304Z,29.00
2018-12-18T19:35:29.804Z,27.93
2018-12-18T19:38:03.060Z,28.20
2018-12-18T19:40:26.875Z,29.53
2018-12-18T19:42:54.411Z,31.63
2018-12-18T19:45:21.908Z,28.47
2018-12-18T19:47:49.453Z,28.33
2018-12-18T19:50:16.957Z,25.93
2018-12-18T19:52:44.496Z,24.37
2018-12-18T19:55:12.003Z,25.87
2018-12-18T19:57:39.535Z,26.53
2018-12-18T20:00:09.996Z,28.10
2018-12-18T20:02:37.523Z,27.47
2018-12-18T20:05:05.988Z,26.90
2018-12-18T20:07:33.520Z,25.93
2018-12-18T20:10:01.019Z,29.93
2018-12-18T20:12:28.547Z,29.63
2018-12-18T20:14:56.043Z,31.30
2018-12-18T20:17:23.571Z,31.77
2018-12-18T20:19:51.071Z,30.90
2018-12-18T20:22:18.601Z,28.80
2018-12-18T20:24:46.099Z,33.20
2018-12-18T20:27:13.631Z,32.60
2018-12-18T20:29:41.311Z,31.00
2018-12-18T20:32:08.915Z,32.20
2018-12-18T20:34:36.411Z,30.50
2018-12-18T20:37:03.939Z,31.27
2018-12-18T20:39:31.431Z,31.33
2018-12-18T20:41:58.968Z,32.33
2018-12-18T20:44:26.467Z,30.53
2018-12-18T20:46:53.964Z,31.40
2018-12-18T20:49:21.501Z,28.00
2018-12-18T20:51:48.999Z,31.30
2018-12-18T20:54:16.642Z,27.30
2018-12-18T20:56:44.143Z,27.30
2018-12-18T20:59:11.667Z,26.07
2018-12-18T21:01:39.167Z,26.80
2018-12-18T21:04:06.695Z,27.13
2018-12-18T21:06:34.201Z,28.93
2018-12-18T21:09:01.734Z,23.97
2018-12-18T21:11:29.231Z,25.27
2018-12-18T21:13:56.762Z,25.57
2018-12-18T21:16:24.255Z,25.60
2018-12-18T21:18:51.783Z,26.93
2018-12-18T21:21:19.279Z,23.47
2018-12-18T21:23:46.812Z,26.60
2018-12-18T21:26:14.314Z,28.53
2018-12-18T21:28:41.847Z,24.33
2018-12-18T21:31:09.347Z,26.73
2018-12-18T21:33:36.875Z,24.93
2018-12-18T21:36:04.371Z,24.87
2018-12-18T21:38:31.904Z,25.17
2018-12-18T21:40:59.407Z,27.00
2018-12-18T21:43:26.935Z,27.23
2018-12-18T21:45:54.517Z,25.27
2018-12-18T21:48:22.043Z,26.57
2018-12-18T21:50:49.544Z,29.27
2018-12-18T21:53:17.075Z,27.30
2018-12-18T21:55:44.575Z,28.57
2018-12-18T21:58:12.079Z,24.60
2018-12-18T22:00:39.607Z,25.03
2018-12-18T22:03:07.107Z,27.00
2018-12-18T22:05:34.631Z,27.40
2018-12-18T22:08:02.127Z,27.93
2018-12-18T22:10:29.655Z,35.03
2018-12-18T22:12:57.147Z,26.13
2018-12-18T22:15:24.735Z,24.50
2018-12-18T22:17:52.298Z,28.13
2018-12-18T22:20:19.828Z,28.50
2018-12-18T22:22:47.327Z,27.57
2018-12-18T22:25:15.176Z,28.73
2018-12-18T22:27:43.858Z,31.53
2018-12-18T22:30:11.391Z,33.67
2018-12-18T22:32:38.895Z,30.57
2018-12-18T22:35:06.503Z,29.97
2018-12-18T22:37:33.996Z,30.17
2018-12-18T22:40:01.526Z,33.80
2018-12-18T22:42:29.027Z,33.33
2018-12-18T22:44:56.555Z,33.67
2018-12-18T22:47:24.054Z,33.07
2018-12-18T22:49:51.556Z,32.50
2018-12-18T22:52:19.079Z,29.60
2018-12-18T22:54:46.577Z,33.80
2018-12-18T22:57:14.107Z,31.27
2018-12-18T22:59:41.603Z,33.13
2018-12-18T23:02:14.914Z,38.50
2018-12-18T23:04:42.775Z,34.43
2018-12-18T23:07:10.303Z,36.87
2018-12-18T23:09:37.805Z,31.73
2018-12-18T23:12:05.341Z,36.10
2018-12-18T23:14:32.844Z,34.53
2018-12-18T23:17:00.367Z,28.97
2018-12-18T23:19:27.863Z,33.87
2018-12-18T23:21:55.393Z,33.13
2018-12-18T23:24:22.892Z,30.47
2018-12-18T23:26:50.424Z,30.57
2018-12-18T23:29:17.931Z,34.60
2018-12-18T23:31:45.463Z,31.93
2018-12-18T23:34:12.962Z,36.33
2018-12-18T23:36:40.493Z,34.80
2018-12-18T23:39:07.995Z,35.57
2018-12-18T23:41:36.662Z,38.53
2018-12-18T23:44:04.431Z,35.83
2018-12-18T23:46:31.955Z,36.47
2018-12-18T23:48:59.455Z,33.47
2018-12-18T23:51:27.063Z,33.03
2018-12-18T23:53:54.568Z,35.97
2018-12-18T23:56:22.099Z,34.17
2018-12-18T23:58:49.599Z,34.13
